Faust — SLKQ — position and weather

sailwx.info

Track history (hours):
 
Tides and Currents Weather Stations Pressure Air Temp Water Temp Dewpoint Dewpoint Depression Visibility Wind Speed Wind Dir Waves Ship Positions

Faust

Last reported at 2017-Jan-19 18:33 UTC. Time now 2017-Jan-19 19:16 UTC.
Position N 53°34' E 008°33'.

Length 227.8 m; beam 32.3 m; draft 9.5 m.

Type: Cargo ship. MMSI: 266260000.

Date/timePositionNaut miles runAvg speedWind from/ knotsBaromVisibWave heightAir tempDewpointWater temp
2017-Jan-19 18:33N 53°34' E 008°33'0 0.1
2017-Jan-19 17:33N 53°34' E 008°33'1 0.6
2017-Jan-19 16:33N 53°35' E 008°33'0 0.0
2017-Jan-19 15:33N 53°35' E 008°33'0 0.0
2017-Jan-19 14:33N 53°35' E 008°33'0 0.0
2017-Jan-19 13:33N 53°35' E 008°33'0 0.0
2017-Jan-19 12:33N 53°35' E 008°33'0 0.0
2017-Jan-19 11:33N 53°35' E 008°33'0 0.0
2017-Jan-19 10:33N 53°35' E 008°33'0 0.0
2017-Jan-19 09:33N 53°35' E 008°33'0 0.0
2017-Jan-19 08:33N 53°35' E 008°33'0 0.0
2017-Jan-19 07:33N 53°35' E 008°33'0 0.0
2017-Jan-19 06:33N 53°35' E 008°33'0 0.0
2017-Jan-19 05:33N 53°35' E 008°33'0 0.0
2017-Jan-19 04:33N 53°35' E 008°33'0 0.0
2017-Jan-19 03:33N 53°35' E 008°33'0 0.4
2017-Jan-19 02:34N 53°34' E 008°33'4 3.8
2017-Jan-19 01:34N 53°37' E 008°29'1818.0
2017-Jan-19 00:34N 53°49' E 008°06'1515.2
2017-Jan-18 23:33N 53°53' E 007°41'1514.5
2017-Jan-18 22:33N 53°52' E 007°17'1414.4
2017-Jan-18 21:33N 53°49' E 006°53'1414.0
2017-Jan-18 20:33N 53°46' E 006°30'1413.6
2017-Jan-18 19:34N 53°42' E 006°08'1313.4
2017-Jan-18 18:34N 53°38' E 005°46'1313.2
2017-Jan-18 17:34N 53°34' E 005°25'1313.0
2017-Jan-18 16:34N 53°30' E 005°04'1312.9
2017-Jan-18 15:34N 53°25' E 004°45'1312.7
2017-Jan-18 14:34N 53°13' E 004°34'1313.1
2017-Jan-18 13:33N 53°02' E 004°22'1313.0
2017-Jan-18 12:34N 52°51' E 004°13'1313.1
2017-Jan-18 11:33N 52°41' E 003°60'1413.6
2017-Jan-18 10:33N 52°31' E 003°44'1414.1
2017-Jan-18 09:34N 52°21' E 003°28'1514.5
2017-Jan-18 08:33N 52°10' E 003°11'1514.8
2017-Jan-18 07:33N 51°59' E 002°55'1615.2
2017-Jan-18 06:32N 51°47' E 002°39'1515.5
2017-Jan-18 05:33N 51°36' E 002°23'1515.3
2017-Jan-18 04:33N 51°23' E 002°10'1515.0
2017-Jan-18 03:34N 51°11' E 001°55'1515.5
2017-Jan-18 02:34N 51°01' E 001°37'1414.3
2017-Jan-18 01:34N 50°49' E 001°24'1513.6
2017-Jan-18 00:27N 50°37' E 001°11'4113.7
2017-Jan-17 21:28N 50°21' E 000°11'1212.9
2017-Jan-17 20:33N 50°18' W 000°07'1212.4
2017-Jan-17 19:33N 50°15' W 000°25'1211.8
2017-Jan-17 18:33N 50°11' W 000°42'1111.1
2017-Jan-17 17:34N 50°09' W 000°59'1110.9
2017-Jan-17 16:33N 50°07' W 001°16'1111.4
2017-Jan-17 15:34N 50°04' W 001°33'1312.7
2017-Jan-17 14:33N 50°00' W 001°52'1414.2
2017-Jan-17 13:34N 49°57' W 002°14'1815.0
2017-Jan-17 12:23N 49°53' W 002°40'2714.7
2017-Jan-17 10:34N 49°49' W 003°21'1614.5
2017-Jan-17 09:29N 49°47' W 003°45'8213.8
2017-Jan-17 03:33N 49°39' W 005°52'2512.4
2017-Jan-17 01:31N 49°38' W 006°31'10113.4
2017-Jan-16 18:00N 49°42' W 009°06'10116.8 340 / 91027.910.8 10.3 11.2
2017-Jan-16 12:00N 49°48' W 011°42'7011.6 250 / 141033.0 5.4 11.7 12.3
2017-Jan-16 06:00N 49°54' W 013°30'8514.2 230 / 141031.910.8 11.6 12.1
2017-Jan-16 00:00N 49°54' W 015°42'8514.2 220 / 161031.410.8 11.9 12.3
2017-Jan-15 18:00N 49°48' W 017°54'27715.4 200 / 201028.6 5.4 12.1 12.4
2017-Jan-15 00:00N 49°24' W 025°00'9115.1 180 / 271021.710.8 12.0 12.9
2017-Jan-14 18:00N 49°12' W 027°18'10417.3 180 / 251019.8 5.4 12.6 12.3
2017-Jan-14 12:00N 48°54' W 029°54'10217.0 180 / 271019.7 5.4 12.3 12.0
2017-Jan-14 06:00N 48°30' W 032°24'32918.3 180 / 301018.3 5.4 13.1 13.6
2017-Jan-13 12:00N 46°54' W 040°12'21017.5 170 / 231020.1 2.2 14.3 15.0
2017-Jan-13 00:00N 45°36' W 044°54'9615.9 360 / 251021.5 1.1 8.5 7.7
2017-Jan-12 18:00N 45°00' W 047°00'9515.9 350 / 431026.3 1.1 0.6 0.8
2017-Jan-12 12:00N 44°18' W 049°00'20016.6 360 / 211030.5 1.1 1.7 0.9
2017-Jan-12 00:00N 42°48' W 053°06'10517.4 070 / 141034.8 5.4 4.7 12.6
2017-Jan-11 18:00N 42°00' W 055°12'10517.5 090 / 81036.210.8 0.8 15.0
2017-Jan-11 12:00N 41°06' W 057°12'42917.9 090 / 141037.9 2.2 6.8 20.4
2017-Jan-10 12:00N 38°24' W 065°48'22919.0 360 / 121037.910.8 6.7 24.8
2017-Jan-10 00:00N 36°42' W 070°06'   360 / 81037.210.8 7.2 23.7
Track history (hours):
 
Tides and Currents Weather Stations Pressure Air Temp Water Temp Dewpoint Dewpoint Depression Visibility Wind Speed Wind Dir Waves Ship Positions

Faust

Last reported at 2017-Jan-19 18:33 UTC. Time now 2017-Jan-19 19:16 UTC.
Position N 53°34' E 008°33'.

Length 227.8 m; beam 32.3 m; draft 9.5 m.

Type: Cargo ship. MMSI: 266260000.

Date/timePositionNaut miles runAvg speedWind from/ knotsBaromVisibWave heightAir tempDewpointWater temp
2017-Jan-19 18:33N 53°34' E 008°33'0 0.1
2017-Jan-19 17:33N 53°34' E 008°33'1 0.6
2017-Jan-19 16:33N 53°35' E 008°33'0 0.0
2017-Jan-19 15:33N 53°35' E 008°33'0 0.0
2017-Jan-19 14:33N 53°35' E 008°33'0 0.0
2017-Jan-19 13:33N 53°35' E 008°33'0 0.0
2017-Jan-19 12:33N 53°35' E 008°33'0 0.0
2017-Jan-19 11:33N 53°35' E 008°33'0 0.0
2017-Jan-19 10:33N 53°35' E 008°33'0 0.0
2017-Jan-19 09:33N 53°35' E 008°33'0 0.0
2017-Jan-19 08:33N 53°35' E 008°33'0 0.0
2017-Jan-19 07:33N 53°35' E 008°33'0 0.0
2017-Jan-19 06:33N 53°35' E 008°33'0 0.0
2017-Jan-19 05:33N 53°35' E 008°33'0 0.0
2017-Jan-19 04:33N 53°35' E 008°33'0 0.0
2017-Jan-19 03:33N 53°35' E 008°33'0 0.4
2017-Jan-19 02:34N 53°34' E 008°33'4 3.8
2017-Jan-19 01:34N 53°37' E 008°29'1818.0
2017-Jan-19 00:34N 53°49' E 008°06'1515.2
2017-Jan-18 23:33N 53°53' E 007°41'1514.5
2017-Jan-18 22:33N 53°52' E 007°17'1414.4
2017-Jan-18 21:33N 53°49' E 006°53'1414.0
2017-Jan-18 20:33N 53°46' E 006°30'1413.6
2017-Jan-18 19:34N 53°42' E 006°08'1313.4
2017-Jan-18 18:34N 53°38' E 005°46'1313.2
2017-Jan-18 17:34N 53°34' E 005°25'1313.0
2017-Jan-18 16:34N 53°30' E 005°04'1312.9
2017-Jan-18 15:34N 53°25' E 004°45'1312.7
2017-Jan-18 14:34N 53°13' E 004°34'1313.1
2017-Jan-18 13:33N 53°02' E 004°22'1313.0
2017-Jan-18 12:34N 52°51' E 004°13'1313.1
2017-Jan-18 11:33N 52°41' E 003°60'1413.6
2017-Jan-18 10:33N 52°31' E 003°44'1414.1
2017-Jan-18 09:34N 52°21' E 003°28'1514.5
2017-Jan-18 08:33N 52°10' E 003°11'1514.8
2017-Jan-18 07:33N 51°59' E 002°55'1615.2
2017-Jan-18 06:32N 51°47' E 002°39'1515.5
2017-Jan-18 05:33N 51°36' E 002°23'1515.3
2017-Jan-18 04:33N 51°23' E 002°10'1515.0
2017-Jan-18 03:34N 51°11' E 001°55'1515.5
2017-Jan-18 02:34N 51°01' E 001°37'1414.3
2017-Jan-18 01:34N 50°49' E 001°24'1513.6
2017-Jan-18 00:27N 50°37' E 001°11'4113.7
2017-Jan-17 21:28N 50°21' E 000°11'1212.9
2017-Jan-17 20:33N 50°18' W 000°07'1212.4
2017-Jan-17 19:33N 50°15' W 000°25'1211.8
2017-Jan-17 18:33N 50°11' W 000°42'1111.1
2017-Jan-17 17:34N 50°09' W 000°59'1110.9
2017-Jan-17 16:33N 50°07' W 001°16'1111.4
2017-Jan-17 15:34N 50°04' W 001°33'1312.7
2017-Jan-17 14:33N 50°00' W 001°52'1414.2
2017-Jan-17 13:34N 49°57' W 002°14'1815.0
2017-Jan-17 12:23N 49°53' W 002°40'2714.7
2017-Jan-17 10:34N 49°49' W 003°21'1614.5
2017-Jan-17 09:29N 49°47' W 003°45'8213.8
2017-Jan-17 03:33N 49°39' W 005°52'2512.4
2017-Jan-17 01:31N 49°38' W 006°31'10113.4
2017-Jan-16 18:00N 49°42' W 009°06'10116.8 340 / 91027.910.8 10.3 11.2
2017-Jan-16 12:00N 49°48' W 011°42'7011.6 250 / 141033.0 5.4 11.7 12.3
2017-Jan-16 06:00N 49°54' W 013°30'8514.2 230 / 141031.910.8 11.6 12.1
2017-Jan-16 00:00N 49°54' W 015°42'8514.2 220 / 161031.410.8 11.9 12.3
2017-Jan-15 18:00N 49°48' W 017°54'27715.4 200 / 201028.6 5.4 12.1 12.4
2017-Jan-15 00:00N 49°24' W 025°00'9115.1 180 / 271021.710.8 12.0 12.9
2017-Jan-14 18:00N 49°12' W 027°18'10417.3 180 / 251019.8 5.4 12.6 12.3
2017-Jan-14 12:00N 48°54' W 029°54'10217.0 180 / 271019.7 5.4 12.3 12.0
2017-Jan-14 06:00N 48°30' W 032°24'32918.3 180 / 301018.3 5.4 13.1 13.6
2017-Jan-13 12:00N 46°54' W 040°12'21017.5 170 / 231020.1 2.2 14.3 15.0
2017-Jan-13 00:00N 45°36' W 044°54'9615.9 360 / 251021.5 1.1 8.5 7.7
2017-Jan-12 18:00N 45°00' W 047°00'9515.9 350 / 431026.3 1.1 0.6 0.8
2017-Jan-12 12:00N 44°18' W 049°00'20016.6 360 / 211030.5 1.1 1.7 0.9
2017-Jan-12 00:00N 42°48' W 053°06'10517.4 070 / 141034.8 5.4 4.7 12.6
2017-Jan-11 18:00N 42°00' W 055°12'10517.5 090 / 81036.210.8 0.8 15.0
2017-Jan-11 12:00N 41°06' W 057°12'42917.9 090 / 141037.9 2.2 6.8 20.4
2017-Jan-10 12:00N 38°24' W 065°48'22919.0 360 / 121037.910.8 6.7 24.8
2017-Jan-10 00:00N 36°42' W 070°06'   360 / 81037.210.8 7.2 23.7

Dump ship's entire track history